Flight Track Log - Related Links

Times and Time Zones

All times are in EST time to prevent confusion due to time zone crossing. See the ANA1185 flight status page for this flight to view local times or setup timezone preferences in your user account.

Time Position Orientation Groundspeed Altitude Reporting Facility
EST Latitude Longitude Course Direction KTS MPH feet Rate Location/Type
Tue 07:48:18 PM 35.5280 139.8770 151° Southeast 173 199 3,400  Level FlightAware ADS-B
Tue 07:48:30 PM 35.5180 139.8810 162° South 190 219 3,700 1,500 Climbing FlightAware ADS-B
Tue 07:48:34 PM 35.5150 139.8820 165° South 197 227 3,800 1,000 Climbing FlightAware ADS-B
Tue 07:48:42 PM 35.5080 139.8810 187° South 211 243 3,900 1,286 Climbing FlightAware ADS-B
Tue 07:48:48 PM 35.5010 139.8780 199° South 220 253 4,100 2,000 Climbing FlightAware ADS-B
Tue 07:49:06 PM 35.4840 139.8700 201° Southwest 236 272 4,700 2,600 Climbing FlightAware ADS-B
Tue 07:49:18 PM 35.4710 139.8630 204° Southwest 237 273 5,400 3,400 Climbing FlightAware ADS-B
Tue 07:49:36 PM 35.4540 139.8520 208° Southwest 236 272 6,400 3,667 Climbing FlightAware ADS-B
Tue 07:49:54 PM 35.4380 139.8390 214° Southwest 228 262 7,600 2,914 Climbing FlightAware ADS-B
Tue 07:50:11 PM 35.4230 139.8280 211° Southwest 245 282 8,100 2,143 Climbing FlightAware ADS-B
Tue 07:50:36 PM 35.3970 139.8090 211° Southwest 261 300 9,100 2,459 Climbing FlightAware ADS-B
Tue 07:51:12 PM 35.3590 139.7800 212° Southwest 281 323 10,600 1,909 Climbing FlightAware ADS-B
Tue 07:51:42 PM 35.3250 139.7550 211° Southwest 313 360 11,200 1,889 Climbing FlightAware ADS-B
Tue 07:52:06 PM 35.2970 139.7260 220° Southwest 317 365 12,300 2,800 Climbing FlightAware ADS-B
Tue 07:52:42 PM 35.2610 139.6780 227° Southwest 326 375 14,000 2,833 Climbing FlightAware ADS-B
Tue 07:53:18 PM 35.2230 139.6280 227° Southwest 333 383 15,700 2,727 Climbing FlightAware ADS-B
Tue 07:53:48 PM 35.1920 139.5870 227° Southwest 338 389 17,000 2,600 Climbing FlightAware ADS-B
Tue 07:56:00 PM 35.0860 139.3454 242° Southwest  Level Estimated
Tue 07:57:00 PM 35.0376 139.2359 242° Southwest  Level Estimated
Tue 07:58:00 PM 34.9891 139.1264 242° Southwest  Level Estimated
Tue 07:59:00 PM 34.9406 139.0171 242° Southwest  Level Estimated
Tue 08:00:00 PM 34.8919 138.9079 242° Southwest  Level Estimated
Tue 08:01:00 PM 34.8432 138.7988 241° Southwest  Level Estimated
Tue 08:02:00 PM 34.7943 138.6899 241° Southwest  Level Estimated
Tue 08:03:00 PM 34.7454 138.5811 241° Southwest  Level Estimated
Tue 08:04:00 PM 34.6964 138.4724 241° Southwest  Level Estimated
Tue 08:05:00 PM 34.6472 138.3638 241° Southwest  Level Estimated
Tue 08:06:00 PM 34.5980 138.2554 241° Southwest  Level Estimated
Tue 08:07:00 PM 34.5487 138.1471 241° Southwest  Level Estimated
Tue 08:08:00 PM 34.4992 138.0389 241° Southwest  Level Estimated
Tue 08:09:00 PM 34.4497 137.9309 241° Southwest  Level Estimated
Tue 08:10:00 PM 34.4001 137.8230 241° Southwest  Level Estimated
Tue 08:11:00 PM 34.3504 137.7152 241° Southwest  Level Estimated
Tue 08:12:00 PM 34.3006 137.6075 241° Southwest  Level Estimated
Tue 08:13:00 PM 34.2507 137.5000 241° Southwest  Level Estimated
Tue 08:14:00 PM 34.2007 137.3926 241° Southwest  Level Estimated
Tue 08:15:00 PM 34.1506 137.2853 241° Southwest  Level Estimated
Tue 08:16:00 PM 34.1004 137.1782 241° Southwest  Level Estimated
Tue 08:17:00 PM 34.0502 137.0712 240° Southwest  Level Estimated
Tue 08:18:00 PM 33.9998 136.9643 240° Southwest  Level Estimated
Tue 08:19:00 PM 33.9494 136.8575 240° Southwest  Level Estimated
Tue 08:20:00 PM 33.8988 136.7509 240° Southwest  Level Estimated
Tue 08:21:00 PM 33.8482 136.6443 240° Southwest  Level Estimated
Tue 08:22:00 PM 33.7974 136.5379 240° Southwest  Level Estimated
Tue 08:23:00 PM 33.7466 136.4317 240° Southwest  Level Estimated
Tue 08:24:00 PM 33.6957 136.3256 240° Southwest  Level Estimated
Tue 08:25:00 PM 33.6447 136.2195 240° Southwest  Level Estimated
Tue 08:26:00 PM 33.5936 136.1137 240° Southwest  Level Estimated
Tue 08:27:00 PM 33.5424 136.0079 240° Southwest  Level Estimated
Tue 08:28:00 PM 33.4912 135.9023 240° Southwest  Level Estimated
Tue 08:29:00 PM 33.4398 135.7968 240° Southwest  Level Estimated
Tue 08:30:00 PM 33.3884 135.6914 240° Southwest  Level Estimated
Tue 08:31:00 PM 33.3368 135.5861 240° Southwest  Level Estimated
Tue 08:32:00 PM 33.2852 135.4810 240° Southwest  Level Estimated
Tue 08:33:00 PM 33.2335 135.3760 240° Southwest  Level Estimated
Tue 08:34:00 PM 33.1817 135.2711 239° Southwest  Level Estimated
Tue 08:35:00 PM 33.1298 135.1664 239° Southwest  Level Estimated
Tue 08:36:00 PM 33.0778 135.0617 239° Southwest  Level Estimated
Tue 08:37:00 PM 33.0257 134.9572 239° Southwest  Level Estimated
Tue 08:38:00 PM 32.9736 134.8528 239° Southwest  Level Estimated
Tue 08:39:00 PM 32.9213 134.7485 239° Southwest  Level Estimated
Tue 08:40:00 PM 32.8690 134.6444 239° Southwest  Level Estimated
Tue 08:41:00 PM 32.8166 134.5404 239° Southwest  Level Estimated
Tue 08:42:00 PM 32.7641 134.4365 239° Southwest  Level Estimated
Tue 08:43:00 PM 32.7115 134.3327 239° Southwest  Level Estimated
Tue 08:44:00 PM 32.6588 134.2291 239° Southwest  Level Estimated
Tue 08:45:00 PM 32.6060 134.1255 239° Southwest  Level Estimated
Tue 08:46:00 PM 32.5532 134.0221 239° Southwest  Level Estimated
Tue 08:47:00 PM 32.5003 133.9188 239° Southwest  Level Estimated
Tue 08:48:00 PM 32.4473 133.8157 239° Southwest  Level Estimated
Tue 08:49:00 PM 32.3942 133.7126 239° Southwest  Level Estimated
Tue 08:50:00 PM 32.3410 133.6097 239° Southwest  Level Estimated
Tue 08:51:00 PM 32.2877 133.5069 239° Southwest  Level Estimated
Tue 08:52:00 PM 32.2344 133.4042 238° Southwest  Level Estimated
Tue 08:53:00 PM 32.1810 133.3017 238° Southwest  Level Estimated
Tue 08:54:00 PM 32.1274 133.1992 238° Southwest  Level Estimated
Tue 08:55:00 PM 32.0738 133.0969 238° Southwest  Level Estimated
Tue 08:56:00 PM 32.0202 132.9947 238° Southwest  Level Estimated
Tue 08:57:00 PM 31.9664 132.8926 238° Southwest  Level Estimated
Tue 08:58:00 PM 31.9126 132.7907 238° Southwest  Level Estimated
Tue 08:59:00 PM 31.8587 132.6888 238° Southwest  Level Estimated
Tue 09:00:00 PM 31.8046 132.5871 238° Southwest  Level Estimated
Tue 09:01:00 PM 31.7506 132.4855 238° Southwest  Level Estimated
Tue 09:02:00 PM 31.6964 132.3840 238° Southwest  Level Estimated
Tue 09:03:00 PM 31.6422 132.2827 238° Southwest  Level Estimated
Tue 09:04:00 PM 31.5879 132.1814 238° Southwest  Level Estimated
Tue 09:05:00 PM 31.5334 132.0803 238° Southwest  Level Estimated
Tue 09:06:00 PM 31.4790 131.9793 238° Southwest  Level Estimated
Tue 09:07:00 PM 31.4244 131.8784 238° Southwest  Level Estimated
Tue 09:08:00 PM 31.3698 131.7776 238° Southwest  Level Estimated
Tue 09:09:00 PM 31.3151 131.6770 238° Southwest  Level Estimated
Tue 09:10:00 PM 31.2603 131.5764 237° Southwest  Level Estimated
Tue 09:11:00 PM 31.2054 131.4760 237° Southwest  Level Estimated
Tue 09:12:00 PM 31.1504 131.3757 237° Southwest  Level Estimated
Tue 09:13:00 PM 31.0954 131.2755 237° Southwest  Level Estimated
Tue 09:14:00 PM 31.0403 131.1754 237° Southwest  Level Estimated
Tue 09:15:00 PM 30.9851 131.0755 237° Southwest  Level Estimated
Tue 09:16:00 PM 30.9298 130.9756 237° Southwest  Level Estimated
Tue 09:17:00 PM 30.8745 130.8759 237° Southwest  Level Estimated
Tue 09:18:00 PM 30.8191 130.7763 237° Southwest  Level Estimated
Tue 09:19:00 PM 30.7636 130.6768 237° Southwest  Level Estimated
Tue 09:20:00 PM 30.7080 130.5774 237° Southwest  Level Estimated
Tue 09:21:00 PM 30.6524 130.4781 237° Southwest  Level Estimated
Tue 09:22:00 PM 30.5966 130.3790 237° Southwest  Level Estimated
Tue 09:23:00 PM 30.5409 130.2799 237° Southwest  Level Estimated
Tue 09:24:00 PM 30.4850 130.1810 237° Southwest  Level Estimated
Tue 09:25:00 PM 30.4291 130.0822 237° Southwest  Level Estimated
Tue 09:26:00 PM 30.3730 129.9835 237° Southwest  Level Estimated
Tue 09:27:00 PM 30.3169 129.8849 237° Southwest  Level Estimated
Tue 09:28:00 PM 30.2608 129.7864 237° Southwest  Level Estimated
Tue 09:29:00 PM 30.2045 129.6881 237° Southwest  Level Estimated
Tue 09:30:00 PM 30.1482 129.5898 236° Southwest  Level Estimated
Tue 09:31:00 PM 30.0918 129.4917 236° Southwest  Level Estimated
Tue 09:32:00 PM 30.0354 129.3936 236° Southwest  Level Estimated
Tue 09:33:00 PM 29.9788 129.2957 236° Southwest  Level Estimated
Tue 09:34:00 PM 29.9222 129.1979 236° Southwest  Level Estimated
Tue 09:35:00 PM 29.8656 129.1002 236° Southwest  Level Estimated
Tue 09:36:00 PM 29.8088 129.0027 236° Southwest  Level Estimated
Tue 09:37:00 PM 29.7520 128.9052 236° Southwest  Level Estimated
Tue 09:38:00 PM 29.6951 128.8078 236° Southwest  Level Estimated
Tue 09:39:00 PM 29.6381 128.7106 236° Southwest  Level Estimated
Tue 09:40:00 PM 29.5811 128.6134 236° Southwest  Level Estimated
Tue 09:41:00 PM 29.5240 128.5164 236° Southwest  Level Estimated
Tue 09:42:00 PM 29.4668 128.4195 236° Southwest  Level Estimated
Tue 09:43:00 PM 29.4096 128.3227 236° Southwest  Level Estimated
Tue 09:44:00 PM 29.3523 128.2260 236° Southwest  Level Estimated
Tue 09:45:00 PM 29.2949 128.1294 236° Southwest  Level Estimated
Tue 09:46:00 PM 29.2375 128.0329 236° Southwest  Level Estimated
Tue 09:47:00 PM 29.1799 127.9365 236° Southwest  Level Estimated
Tue 09:48:00 PM 29.1224 127.8403 236° Southwest  Level Estimated
Tue 09:49:00 PM 29.0647 127.7441 236° Southwest  Level Estimated
Tue 09:50:00 PM 29.0070 127.6481 236° Southwest  Level Estimated
Tue 09:51:00 PM 28.9492 127.5521 235° Southwest  Level Estimated
Tue 09:52:00 PM 28.8913 127.4563 235° Southwest  Level Estimated
Tue 09:53:00 PM 28.8334 127.3605 235° Southwest  Level Estimated
Tue 09:54:00 PM 28.7754 127.2649 235° Southwest  Level Estimated
Tue 09:55:00 PM 28.7173 127.1694 235° Southwest  Level Estimated
Tue 09:56:00 PM 28.6592 127.0740 235° Southwest  Level Estimated
Tue 09:57:00 PM 28.6010 126.9787 235° Southwest  Level Estimated
Tue 09:58:00 PM 28.5427 126.8835 235° Southwest  Level Estimated
Tue 09:59:00 PM 28.4844 126.7884 235° Southwest  Level Estimated
Tue 10:00:00 PM 28.4260 126.6934 235° Southwest  Level Estimated
Tue 10:01:00 PM 28.3675 126.5985 235° Southwest  Level Estimated
Tue 10:02:00 PM 28.3090 126.5038 235° Southwest  Level Estimated
Tue 10:03:00 PM 28.2504 126.4091 235° Southwest  Level Estimated
Tue 10:04:00 PM 28.1917 126.3145 235° Southwest  Level Estimated
Tue 10:05:00 PM 28.1330 126.2200 235° Southwest  Level Estimated
Tue 10:06:00 PM 28.0742 126.1257 235° Southwest  Level Estimated
Tue 10:07:00 PM 28.0153 126.0314 235° Southwest  Level Estimated
Tue 10:08:00 PM 27.9564 125.9372 235° Southwest  Level Estimated
Tue 10:09:00 PM 27.8974 125.8432 235° Southwest  Level Estimated
Tue 10:10:00 PM 27.8384 125.7492 235° Southwest  Level Estimated
Tue 10:11:00 PM 27.7793 125.6554 235° Southwest  Level Estimated
Tue 10:12:00 PM 27.7201 125.5616 235° Southwest  Level Estimated
Tue 10:13:00 PM 27.6609 125.4680 234° Southwest  Level Estimated
Tue 10:14:00 PM 27.6016 125.3745 234° Southwest  Level Estimated
Tue 10:15:00 PM 27.5422 125.2810 234° Southwest  Level Estimated
Tue 10:16:00 PM 27.4828 125.1877 234° Southwest  Level Estimated
Tue 10:17:00 PM 27.4233 125.0944 234° Southwest  Level Estimated
Tue 10:18:00 PM 27.3637 125.0013 234° Southwest  Level Estimated
Tue 10:19:00 PM 27.3041 124.9082 234° Southwest  Level Estimated
Tue 10:20:00 PM 27.2444 124.8153 234° Southwest  Level Estimated
Tue 10:21:00 PM 27.1847 124.7225 234° Southwest  Level Estimated
Tue 10:22:00 PM 27.1249 124.6297 234° Southwest  Level Estimated
Tue 10:23:00 PM 27.0651 124.5371 234° Southwest  Level Estimated
Tue 10:24:00 PM 27.0051 124.4445 234° Southwest  Level Estimated
Tue 10:25:00 PM 26.9452 124.3521 234° Southwest  Level Estimated
Tue 10:26:00 PM 26.8851 124.2598 234° Southwest  Level Estimated
Tue 10:27:00 PM 26.8250 124.1675 234° Southwest  Level Estimated
Tue 10:28:00 PM 26.7649 124.0753 234° Southwest  Level Estimated
Tue 10:29:00 PM 26.7046 123.9833 234° Southwest  Level Estimated
Tue 10:30:00 PM 26.6444 123.8913 234° Southwest  Level Estimated
Tue 10:31:00 PM 26.5840 123.7995 234° Southwest  Level Estimated
Tue 10:32:00 PM 26.5236 123.7077 234° Southwest  Level Estimated
Tue 10:33:00 PM 26.4632 123.6161 234° Southwest  Level Estimated
Tue 10:34:00 PM 26.4027 123.5245 234° Southwest  Level Estimated
Tue 10:35:00 PM 26.3421 123.4330 234° Southwest  Level Estimated
Tue 10:36:00 PM 26.2815 123.3416 234° Southwest  Level Estimated
Tue 10:37:00 PM 26.2208 123.2504 233° Southwest  Level Estimated
Tue 10:38:00 PM 26.1601 123.1592 233° Southwest  Level Estimated
Tue 10:39:00 PM 26.0993 123.0681 233° Southwest  Level Estimated
Tue 10:40:00 PM 26.0384 122.9771 233° Southwest  Level Estimated
Tue 10:41:00 PM 25.9775 122.8862 233° Southwest  Level Estimated
Tue 10:42:00 PM 25.9165 122.7954 233° Southwest  Level Estimated
Tue 10:43:00 PM 25.8555 122.7046 233° Southwest  Level Estimated
Tue 10:44:00 PM 25.7944 122.6140 233° Southwest  Level Estimated
Tue 10:45:00 PM 25.7333 122.5235 233° Southwest  Level Estimated
Tue 10:46:00 PM 25.6721 122.4331 233° Southwest  Level Estimated
Tue 10:47:00 PM 25.6108 122.3427 233° Southwest  Level Estimated
Tue 10:48:00 PM 25.5495 122.2525 233° Southwest  Level Estimated
Tue 10:49:00 PM 25.4881 122.1623 233° Southwest  Level Estimated
Tue 10:50:00 PM 25.4267 122.0722 233° Southwest  Level Estimated
Tue 10:51:00 PM 25.3653 121.9823 233° Southwest  Level Estimated
Tue 10:52:00 PM 25.3037 121.8924 233° Southwest  Level Estimated
Tue 10:53:00 PM 25.2421 121.8026 233° Southwest  Level Estimated
Tue 10:54:00 PM 25.1805 121.7129 233° Southwest  Level Estimated
Tue 10:55:00 PM 25.1188 121.6233 233° Southwest  Level Estimated
Tue 10:56:00 PM 25.0694 121.5517 233° Southwest  Level Estimated
Tue 10:57:00 PM 25.0694 121.5517 326° Northwest  Level Estimated
Tue 10:58:00 PM 25.0694 121.5517 326° Northwest  Level Estimated
Tue 10:59:00 PM 25.0694 121.5517 326° Northwest  Level Estimated
Tue 11:00:00 PM 25.0694 121.5517 326° Northwest  Level Estimated
Tue 11:01:00 PM 25.0694 121.5517 326° Northwest  Level Estimated
Tue 11:02:00 PM 25.0694 121.5517 326° Northwest  Level Estimated
Tue 11:03:00 PM 25.0694 121.5517 326° Northwest  Level Estimated
Tue 11:04:00 PM 25.0694 121.5517 326° Northwest  Level Estimated
Tue 11:05:00 PM 25.0694 121.5517 326° Northwest  Level Estimated

Login

Don't have an account? Register now (free) for customized features, flight alerts, and more!